createdAt,value
2022-09-12T00:02:30.328Z,75.87
2022-09-12T00:06:35.856Z,75.83
2022-09-12T00:10:40.424Z,75.77
2022-09-12T00:14:43.424Z,75.71
2022-09-12T00:18:48.772Z,75.65
2022-09-12T00:22:51.722Z,75.70
2022-09-12T00:26:54.769Z,75.42
2022-09-12T00:30:58.031Z,75.35
2022-09-12T00:35:03.372Z,75.17
2022-09-12T00:39:06.940Z,75.25
2022-09-12T00:43:15.184Z,75.20
2022-09-12T00:47:23.431Z,75.18
2022-09-12T00:51:30.582Z,75.12
2022-09-12T00:55:39.117Z,75.11
2022-09-12T00:59:46.012Z,75.21
2022-09-12T01:03:50.097Z,74.95
2022-09-12T01:07:57.656Z,75.23
2022-09-12T01:12:03.161Z,75.16
2022-09-12T01:16:07.929Z,74.83
2022-09-12T01:20:52.648Z,74.59
2022-09-12T01:25:08.586Z,74.91
2022-09-12T01:29:28.892Z,74.95
2022-09-12T01:33:57.033Z,74.76
2022-09-12T01:38:10.039Z,74.62
2022-09-12T01:42:22.180Z,74.82
2022-09-12T01:46:33.305Z,74.68
2022-09-12T01:50:44.141Z,74.64
2022-09-12T01:54:51.792Z,74.48
2022-09-12T01:59:00.384Z,74.78
2022-09-12T02:03:10.002Z,74.94
2022-09-12T02:07:17.651Z,74.82
2022-09-12T02:11:21.524Z,74.57
2022-09-12T02:15:33.836Z,74.59
2022-09-12T02:19:41.403Z,74.63
2022-09-12T02:23:49.637Z,74.96
2022-09-12T02:27:56.666Z,75.08
2022-09-12T02:32:03.324Z,74.76
2022-09-12T02:36:21.996Z,75.15
2022-09-12T02:40:26.992Z,75.01
2022-09-12T02:44:32.228Z,74.94
2022-09-12T02:48:41.549Z,74.77
2022-09-12T02:52:45.382Z,75.06
2022-09-12T02:56:49.853Z,74.85
2022-09-12T03:00:59.788Z,74.85
2022-09-12T03:05:23.958Z,74.94
2022-09-12T03:09:37.899Z,74.87
2022-09-12T03:13:54.146Z,74.80
2022-09-12T03:18:21.565Z,74.86
2022-09-12T03:22:32.756Z,75.13
2022-09-12T03:26:41.488Z,75.06
2022-09-12T03:30:48.288Z,75.21
2022-09-12T03:34:51.558Z,75.50
2022-09-12T03:38:54.739Z,75.17
2022-09-12T03:42:57.923Z,75.60
2022-09-12T03:47:02.673Z,75.55
2022-09-12T03:51:08.174Z,75.75
2022-09-12T03:55:11.231Z,75.83
2022-09-12T03:59:14.216Z,76.06
2022-09-12T04:03:19.408Z,75.97
2022-09-12T04:07:22.368Z,76.18
2022-09-12T04:11:25.369Z,76.21
2022-09-12T04:15:28.444Z,76.41
2022-09-12T04:19:32.888Z,76.17
2022-09-12T04:23:36.867Z,76.31
2022-09-12T04:27:40.131Z,76.55
2022-09-12T04:31:43.425Z,76.59
2022-09-12T04:35:47.990Z,76.45
2022-09-12T04:39:51.883Z,76.53
2022-09-12T04:43:58.231Z,76.37
2022-09-12T04:48:01.844Z,76.32
2022-09-12T04:52:06.332Z,76.40
2022-09-12T04:56:10.970Z,76.42
2022-09-12T05:00:15.331Z,76.58
2022-09-12T05:04:19.604Z,76.93
2022-09-12T05:08:24.043Z,77.04
2022-09-12T05:12:27.045Z,76.84
2022-09-12T05:16:31.304Z,77.08
2022-09-12T05:20:34.539Z,77.02
2022-09-12T05:24:39.749Z,77.09
2022-09-12T05:28:43.754Z,77.00
2022-09-12T05:32:47.008Z,77.18
2022-09-12T05:36:50.121Z,76.82
2022-09-12T05:40:54.496Z,76.75
2022-09-12T05:44:57.622Z,76.92
2022-09-12T05:49:04.803Z,76.84
2022-09-12T05:53:08.594Z,76.75
2022-09-12T05:57:13.084Z,76.48
2022-09-12T06:01:18.010Z,76.23
2022-09-12T06:05:21.178Z,76.28
2022-09-12T06:09:25.505Z,76.36
2022-09-12T06:13:29.963Z,75.89
2022-09-12T06:17:33.438Z,75.68
2022-09-12T06:21:37.841Z,75.05
2022-09-12T06:25:47.683Z,75.01
2022-09-12T06:29:52.602Z,74.90
2022-09-12T06:33:56.872Z,74.97
2022-09-12T06:37:59.857Z,74.77
2022-09-12T06:42:02.861Z,74.55
2022-09-12T06:46:13.189Z,74.72
2022-09-12T06:50:16.857Z,74.41
2022-09-12T06:54:20.123Z,73.92
2022-09-12T06:58:23.338Z,73.87
2022-09-12T07:02:27.758Z,73.83
2022-09-12T07:06:32.722Z,73.57
2022-09-12T07:10:35.862Z,72.79
2022-09-12T07:14:39.012Z,72.66
2022-09-12T07:18:43.753Z,72.43
2022-09-12T07:22:47.042Z,72.50
2022-09-12T07:26:50.015Z,72.55
2022-09-12T07:30:54.144Z,72.55
2022-09-12T07:34:58.563Z,72.14
2022-09-12T07:39:02.007Z,72.13
2022-09-12T07:43:05.036Z,71.91
2022-09-12T07:47:08.407Z,71.70
2022-09-12T07:51:13.379Z,71.46
2022-09-12T07:55:16.742Z,70.86
2022-09-12T07:59:41.476Z,70.74
2022-09-12T08:03:45.152Z,70.60
2022-09-12T08:07:49.786Z,70.26
2022-09-12T08:11:53.046Z,70.28
2022-09-12T08:16:00.013Z,70.17
2022-09-12T08:20:04.066Z,69.75
2022-09-12T08:24:08.944Z,69.39
2022-09-12T08:28:11.939Z,69.08
2022-09-12T08:32:15.163Z,68.79
2022-09-12T08:36:21.024Z,69.13
2022-09-12T08:40:25.826Z,68.72
2022-09-12T08:44:51.699Z,68.56
2022-09-12T08:48:58.583Z,68.01
2022-09-12T08:53:05.759Z,67.96
2022-09-12T08:57:13.040Z,67.84
2022-09-12T09:01:31.378Z,67.76
2022-09-12T09:05:47.367Z,67.95
2022-09-12T09:10:03.537Z,67.15
2022-09-12T09:14:39.975Z,66.90
2022-09-12T09:18:45.809Z,66.24
2022-09-12T09:22:53.518Z,66.24
2022-09-12T09:27:02.123Z,66.21
2022-09-12T09:31:07.221Z,66.26
2022-09-12T09:35:18.828Z,66.26
2022-09-12T09:39:36.235Z,65.38
2022-09-12T09:43:39.893Z,64.59
2022-09-12T09:47:46.586Z,64.27
2022-09-12T09:51:50.151Z,64.38
2022-09-12T09:55:56.683Z,64.08
2022-09-12T09:59:59.911Z,63.08
2022-09-12T10:04:04.585Z,62.98
2022-09-12T10:08:09.040Z,63.01
2022-09-12T10:12:28.177Z,62.75
2022-09-12T10:16:33.354Z,62.26
2022-09-12T10:20:41.738Z,61.48
2022-09-12T10:24:50.731Z,61.60
2022-09-12T10:28:56.944Z,61.52
2022-09-12T10:33:08.397Z,60.40
2022-09-12T10:37:24.394Z,60.47
2022-09-12T10:41:27.874Z,60.31
2022-09-12T10:45:33.111Z,60.25
2022-09-12T10:49:40.104Z,60.27
2022-09-12T10:53:47.024Z,59.92
2022-09-12T10:58:05.359Z,59.54
2022-09-12T11:02:21.477Z,59.42
2022-09-12T11:06:31.589Z,59.08
2022-09-12T11:10:45.071Z,58.69
2022-09-12T11:15:03.519Z,58.47
2022-09-12T11:19:22.043Z,58.50
2022-09-12T11:24:00.387Z,57.43
2022-09-12T11:28:36.525Z,57.08
2022-09-12T11:33:05.598Z,57.49
2022-09-12T11:37:27.858Z,57.48
2022-09-12T11:41:33.892Z,56.79
2022-09-12T11:45:43.710Z,56.49
2022-09-12T11:49:50.700Z,57.06
2022-09-12T11:54:13.523Z,56.93
2022-09-12T11:58:19.496Z,56.68
2022-09-12T12:02:28.863Z,55.37
2022-09-12T12:06:35.234Z,54.29
2022-09-12T12:10:42.363Z,54.20
2022-09-12T12:14:49.029Z,54.31
2022-09-12T12:18:58.482Z,54.15
2022-09-12T12:23:02.227Z,54.25
2022-09-12T12:27:23.743Z,54.13
2022-09-12T12:31:29.277Z,54.77
2022-09-12T12:35:41.950Z,54.42
2022-09-12T12:40:05.840Z,53.13
2022-09-12T12:44:48.884Z,53.65
2022-09-12T12:49:09.497Z,53.50
2022-09-12T12:53:22.418Z,53.57
2022-09-12T12:57:50.421Z,53.72
2022-09-12T13:01:56.804Z,53.58
2022-09-12T13:06:03.474Z,53.41
2022-09-12T13:10:09.341Z,53.91
2022-09-12T13:14:36.406Z,52.51
2022-09-12T13:18:44.620Z,53.53
2022-09-12T13:22:50.080Z,52.99
2022-09-12T13:26:54.821Z,53.33
2022-09-12T13:31:03.421Z,54.57
2022-09-12T13:35:15.366Z,54.53
2022-09-12T13:39:27.528Z,54.73
2022-09-12T13:43:40.068Z,54.53
2022-09-12T13:47:45.320Z,53.28
2022-09-12T13:51:59.549Z,53.18
2022-09-12T13:56:03.797Z,53.57
2022-09-12T14:00:18.212Z,53.28
2022-09-12T14:04:40.257Z,53.29
2022-09-12T14:08:44.909Z,52.95
2022-09-12T14:12:50.822Z,52.64
2022-09-12T14:16:55.512Z,52.28
2022-09-12T14:21:10.405Z,52.41
2022-09-12T14:25:16.614Z,52.10
2022-09-12T14:29:21.007Z,52.47
2022-09-12T14:33:25.695Z,52.29
2022-09-12T14:37:28.726Z,52.59
2022-09-12T14:41:37.373Z,52.85
2022-09-12T14:45:41.017Z,52.47
2022-09-12T14:49:45.691Z,52.77
2022-09-12T14:53:52.509Z,52.54
2022-09-12T14:58:13.357Z,51.92
2022-09-12T15:02:24.223Z,51.86
2022-09-12T15:06:31.700Z,52.16
2022-09-12T15:10:36.896Z,51.98
2022-09-12T15:14:39.927Z,51.22
2022-09-12T15:18:43.331Z,50.76
2022-09-12T15:22:48.070Z,51.67
2022-09-12T15:26:51.070Z,51.48
2022-09-12T15:30:57.059Z,52.47
2022-09-12T15:35:00.305Z,51.71
2022-09-12T15:39:05.066Z,51.83
2022-09-12T15:43:08.261Z,51.47
2022-09-12T15:47:13.940Z,51.54
2022-09-12T15:51:18.510Z,52.36
2022-09-12T15:55:24.542Z,52.29
2022-09-12T15:59:27.727Z,52.50
2022-09-12T16:03:31.383Z,52.88
2022-09-12T16:07:34.572Z,53.19
2022-09-12T16:11:39.675Z,54.01
2022-09-12T16:15:42.749Z,53.64
2022-09-12T16:19:45.859Z,53.59
2022-09-12T16:23:49.784Z,53.16
2022-09-12T16:27:54.402Z,53.56
2022-09-12T16:31:57.747Z,54.03
2022-09-12T16:36:05.131Z,53.88
2022-09-12T16:40:09.387Z,54.41
2022-09-12T16:44:14.384Z,54.75
2022-09-12T16:48:17.603Z,54.65
2022-09-12T16:52:20.761Z,54.24
2022-09-12T16:56:24.977Z,54.58
2022-09-12T17:00:29.330Z,54.87
2022-09-12T17:04:32.356Z,55.47
2022-09-12T17:08:38.236Z,55.55
2022-09-12T17:12:41.546Z,55.50
2022-09-12T17:16:51.681Z,55.50
2022-09-12T17:20:54.991Z,55.54
2022-09-12T17:24:58.284Z,55.96
2022-09-12T17:29:01.651Z,55.91
2022-09-12T17:33:06.200Z,56.41
2022-09-12T17:37:09.639Z,56.53
2022-09-12T17:41:16.048Z,56.71
2022-09-12T17:45:19.243Z,57.16
2022-09-12T17:49:24.183Z,57.19
2022-09-12T17:53:27.251Z,57.68
2022-09-12T17:57:30.897Z,58.06
2022-09-12T18:01:51.448Z,58.02
2022-09-12T18:05:57.703Z,58.42
2022-09-12T18:10:00.814Z,58.67
2022-09-12T18:14:03.889Z,58.86
2022-09-12T18:18:07.378Z,59.16
2022-09-12T18:22:12.002Z,59.33
2022-09-12T18:26:15.337Z,59.74
2022-09-12T18:30:22.156Z,59.95
2022-09-12T18:34:25.347Z,60.09
2022-09-12T18:38:29.698Z,60.48
2022-09-12T18:42:32.851Z,60.78
2022-09-12T18:46:36.747Z,60.96
2022-09-12T18:50:39.723Z,61.40
2022-09-12T18:54:44.117Z,61.56
2022-09-12T18:58:51.964Z,61.95
2022-09-12T19:02:55.210Z,62.05
2022-09-12T19:06:58.159Z,62.01
2022-09-12T19:11:03.293Z,62.25
2022-09-12T19:15:07.220Z,62.63
2022-09-12T19:19:10.472Z,62.61
2022-09-12T19:23:13.788Z,62.90
2022-09-12T19:27:18.121Z,63.02
2022-09-12T19:31:22.018Z,63.32
2022-09-12T19:35:25.641Z,63.32
2022-09-12T19:39:28.962Z,63.58
2022-09-12T19:43:33.507Z,63.76
2022-09-12T19:47:36.508Z,63.93
2022-09-12T19:51:39.810Z,63.98
2022-09-12T19:55:42.864Z,64.08
2022-09-12T19:59:48.107Z,64.28
2022-09-12T20:03:52.590Z,64.45
2022-09-12T20:07:55.596Z,64.45
2022-09-12T20:11:58.625Z,64.54
2022-09-12T20:16:08.760Z,64.85
2022-09-12T20:20:12.266Z,65.06
2022-09-12T20:24:15.848Z,64.94
2022-09-12T20:28:18.890Z,65.22
2022-09-12T20:32:23.283Z,65.31
2022-09-12T20:36:27.055Z,65.31
2022-09-12T20:40:30.217Z,65.21
2022-09-12T20:44:33.205Z,65.54
2022-09-12T20:48:37.838Z,65.64
2022-09-12T20:52:41.001Z,65.67
2022-09-12T20:56:44.477Z,65.71
2022-09-12T21:00:47.712Z,65.90
2022-09-12T21:04:52.443Z,66.02
2022-09-12T21:08:58.685Z,66.13
2022-09-12T21:13:01.796Z,66.32
2022-09-12T21:17:05.624Z,66.48
2022-09-12T21:21:11.718Z,66.51
2022-09-12T21:25:14.943Z,66.83
2022-09-12T21:29:18.093Z,66.86
2022-09-12T21:33:22.643Z,66.90
2022-09-12T21:37:27.490Z,67.17
2022-09-12T21:41:30.707Z,67.13
2022-09-12T21:45:34.150Z,67.28
2022-09-12T21:49:37.379Z,67.42
2022-09-12T21:53:42.226Z,67.56
2022-09-12T21:57:45.316Z,67.36
2022-09-12T22:01:48.413Z,67.38
2022-09-12T22:05:52.531Z,67.55
2022-09-12T22:09:57.341Z,67.57
2022-09-12T22:14:00.365Z,67.96
2022-09-12T22:18:03.314Z,68.13
2022-09-12T22:22:24.386Z,68.26
2022-09-12T22:26:29.230Z,68.33
2022-09-12T22:30:32.452Z,68.39
2022-09-12T22:34:35.668Z,68.62
2022-09-12T22:38:38.989Z,68.66
2022-09-12T22:42:43.629Z,68.79
2022-09-12T22:46:46.899Z,68.97
2022-09-12T22:50:50.290Z,69.26
2022-09-12T22:54:53.582Z,69.78
2022-09-12T22:58:58.608Z,69.95
2022-09-12T23:03:02.294Z,69.93
2022-09-12T23:07:05.569Z,69.95
2022-09-12T23:11:10.931Z,69.88
2022-09-12T23:15:15.465Z,69.90
2022-09-12T23:19:18.454Z,70.13
2022-09-12T23:23:21.418Z,70.59
2022-09-12T23:27:27.099Z,70.82
2022-09-12T23:31:33.477Z,70.91
2022-09-12T23:35:36.658Z,71.01
2022-09-12T23:39:39.815Z,70.98
2022-09-12T23:43:45.347Z,71.13
2022-09-12T23:47:49.722Z,71.11
2022-09-12T23:51:52.913Z,71.22
2022-09-12T23:55:56.028Z,71.48
2022-09-12T23:59:59.037Z,71.54
